sensor_id;sensor_type;location;lat;lon;timestamp;pressure;altitude;pressure_sealevel;temperature;humidity
62111;BME280;48102;47.526;19.072;2023-01-30T04:42:00;100792.28;;;-5.08;100.00
62111;BME280;48102;47.526;19.072;2023-01-30T04:45:08;100792.28;;;-5.08;100.00
62111;BME280;48102;47.526;19.072;2023-01-30T04:48:11;100791.16;;;-5.58;100.00
62111;BME280;48102;47.526;19.072;2023-01-30T04:51:16;100791.12;;;-5.60;100.00
62111;BME280;48102;47.526;19.072;2023-01-30T04:54:19;100787.78;;;-5.18;100.00
62111;BME280;48102;47.526;19.072;2023-01-30T04:57:22;100785.34;;;-5.10;100.00
62111;BME280;48102;47.526;19.072;2023-01-30T05:00:25;100788.09;;;-5.01;100.00
62111;BME280;48102;47.526;19.072;2023-01-30T05:03:28;100784.03;;;-4.91;100.00
62111;BME280;48102;47.526;19.072;2023-01-30T05:06:31;100776.88;;;-4.62;100.00
62111;BME280;48102;47.526;19.072;2023-01-30T05:09:35;100780.22;;;-4.66;100.00
62111;BME280;48102;47.526;19.072;2023-01-30T05:12:38;100776.88;;;-4.62;100.00
62111;BME280;48102;47.526;19.072;2023-01-30T05:15:40;100778.47;;;-4.70;100.00
62111;BME280;48102;47.526;19.072;2023-01-30T05:18:43;100767.09;;;-4.80;100.00
62111;BME280;48102;47.526;19.072;2023-01-30T05:21:47;100775.56;;;-4.87;100.00
62111;BME280;48102;47.526;19.072;2023-01-30T05:24:49;100782.34;;;-4.91;100.00
62111;BME280;48102;47.526;19.072;2023-01-30T05:27:52;100781.41;;;-4.94;100.00
62111;BME280;48102;47.526;19.072;2023-01-30T05:31:06;100776.28;;;-4.93;100.00
62111;BME280;48102;47.526;19.072;2023-01-30T05:34:10;100780.53;;;-4.96;100.00
62111;BME280;48102;47.526;19.072;2023-01-30T05:37:13;100769.25;;;-5.01;100.00
62111;BME280;48102;47.526;19.072;2023-01-30T05:40:16;100765.06;;;-4.98;100.00
62111;BME280;48102;47.526;19.072;2023-01-30T05:43:19;100761.72;;;-4.92;100.00
62111;BME280;48102;47.526;19.072;2023-01-30T05:46:22;100765.87;;;-5.00;100.00
62111;BME280;48102;47.526;19.072;2023-01-30T05:49:25;100753.16;;;-4.93;100.00
62111;BME280;48102;47.526;19.072;2023-01-30T05:52:28;100760.69;;;-5.02;100.00
62111;BME280;48102;47.526;19.072;2023-01-30T05:55:31;100757.22;;;-5.04;100.00
62111;BME280;48102;47.526;19.072;2023-01-30T05:58:34;100755.50;;;-5.05;100.00
62111;BME280;48102;47.526;19.072;2023-01-30T06:01:36;100765.81;;;-5.03;100.00
62111;BME280;48102;47.526;19.072;2023-01-30T06:04:39;100759.75;;;-5.06;100.00
62111;BME280;48102;47.526;19.072;2023-01-30T06:07:42;100764.09;;;-5.03;100.00
62111;BME280;48102;47.526;19.072;2023-01-30T06:10:45;100777.88;;;-4.99;100.00
62111;BME280;48102;47.526;19.072;2023-01-30T06:13:48;100774.34;;;-5.05;100.00
62111;BME280;48102;47.526;19.072;2023-01-30T06:16:51;100760.66;;;-5.03;100.00
62111;BME280;48102;47.526;19.072;2023-01-30T06:19:53;100765.81;;;-5.02;100.00
62111;BME280;48102;47.526;19.072;2023-01-30T06:22:56;100759.81;;;-5.02;100.00
62111;BME280;48102;47.526;19.072;2023-01-30T06:25:59;100765.03;;;-4.99;100.00
62111;BME280;48102;47.526;19.072;2023-01-30T06:29:06;100761.00;;;-4.87;100.00
62111;BME280;48102;47.526;19.072;2023-01-30T06:32:09;100772.25;;;-4.80;100.00
62111;BME280;48102;47.526;19.072;2023-01-30T06:35:12;100768.19;;;-4.69;100.00
62111;BME280;48102;47.526;19.072;2023-01-30T06:38:15;100757.22;;;-4.59;100.00
62111;BME280;48102;47.526;19.072;2023-01-30T06:41:18;100752.37;;;-4.43;100.00
62111;BME280;48102;47.526;19.072;2023-01-30T06:44:21;100744.09;;;-4.25;100.00
62111;BME280;48102;47.526;19.072;2023-01-30T06:47:24;100744.47;;;-4.03;100.00
62111;BME280;48102;47.526;19.072;2023-01-30T06:50:28;100745.78;;;-3.73;100.00
62111;BME280;48102;47.526;19.072;2023-01-30T06:53:31;100729.09;;;-3.37;100.00
62111;BME280;48102;47.526;19.072;2023-01-30T06:56:35;100738.94;;;-3.06;100.00
62111;BME280;48102;47.526;19.072;2023-01-30T06:59:38;100740.16;;;-2.74;100.00
62111;BME280;48102;47.526;19.072;2023-01-30T07:02:41;100737.09;;;-2.37;100.00
62111;BME280;48102;47.526;19.072;2023-01-30T07:05:45;100734.78;;;-2.05;100.00
62111;BME280;48102;47.526;19.072;2023-01-30T07:08:49;100730.66;;;-1.81;100.00
62111;BME280;48102;47.526;19.072;2023-01-30T07:11:52;100730.72;;;-1.66;100.00
62111;BME280;48102;47.526;19.072;2023-01-30T07:14:54;100730.00;;;-1.46;100.00
62111;BME280;48102;47.526;19.072;2023-01-30T07:17:58;100734.38;;;-1.32;100.00
62111;BME280;48102;47.526;19.072;2023-01-30T07:21:00;100735.22;;;-1.31;100.00
62111;BME280;48102;47.526;19.072;2023-01-30T07:24:03;100735.28;;;-1.23;100.00
62111;BME280;48102;47.526;19.072;2023-01-30T07:27:07;100730.97;;;-1.21;100.00
62111;BME280;48102;47.526;19.072;2023-01-30T07:30:10;100721.50;;;-1.18;100.00
62111;BME280;48102;47.526;19.072;2023-01-30T07:33:13;100732.69;;;-1.17;100.00
62111;BME280;48102;47.526;19.072;2023-01-30T07:36:16;100725.81;;;-1.14;100.00
62111;BME280;48102;47.526;19.072;2023-01-30T07:39:19;100733.59;;;-1.14;100.00
62111;BME280;48102;47.526;19.072;2023-01-30T07:42:22;100718.13;;;-1.02;100.00
62111;BME280;48102;47.526;19.072;2023-01-30T07:45:46;100719.91;;;-0.85;100.00
62111;BME280;48102;47.526;19.072;2023-01-30T07:48:49;100717.38;;;-0.64;100.00
62111;BME280;48102;47.526;19.072;2023-01-30T07:51:52;100705.25;;;-0.77;100.00
62111;BME280;48102;47.526;19.072;2023-01-30T07:54:55;100707.87;;;-0.68;100.00
62111;BME280;48102;47.526;19.072;2023-01-30T07:57:58;100707.87;;;-0.59;100.00
62111;BME280;48102;47.526;19.072;2023-01-30T08:01:01;100707.03;;;-0.32;100.00
62111;BME280;48102;47.526;19.072;2023-01-30T08:04:04;100696.69;;;-0.26;100.00
62111;BME280;48102;47.526;19.072;2023-01-30T08:07:07;100701.87;;;-0.26;100.00
62111;BME280;48102;47.526;19.072;2023-01-30T08:10:10;100697.53;;;-0.14;100.00
62111;BME280;48102;47.526;19.072;2023-01-30T08:13:13;100700.12;;;-0.08;100.00
62111;BME280;48102;47.526;19.072;2023-01-30T08:16:16;100684.59;;;-0.04;100.00
62111;BME280;48102;47.526;19.072;2023-01-30T08:19:22;100666.47;;;-0.04;100.00
62111;BME280;48102;47.526;19.072;2023-01-30T08:22:27;100634.50;;;0.02;100.00
62111;BME280;48102;47.526;19.072;2023-01-30T08:25:30;100629.28;;;0.19;100.00
62111;BME280;48102;47.526;19.072;2023-01-30T08:28:34;100632.69;;;0.32;100.00
62111;BME280;48102;47.526;19.072;2023-01-30T08:31:36;100617.09;;;0.44;100.00
62111;BME280;48102;47.526;19.072;2023-01-30T08:34:39;100630.84;;;0.55;100.00
62111;BME280;48102;47.526;19.072;2023-01-30T08:37:42;100636.87;;;0.65;100.00
62111;BME280;48102;47.526;19.072;2023-01-30T08:40:45;100627.31;;;0.73;100.00
62111;BME280;48102;47.526;19.072;2023-01-30T08:43:47;100629.94;;;0.67;100.00
62111;BME280;48102;47.526;19.072;2023-01-30T08:46:50;100617.81;;;0.75;100.00
62111;BME280;48102;47.526;19.072;2023-01-30T08:49:53;100625.53;;;0.87;100.00
62111;BME280;48102;47.526;19.072;2023-01-30T08:52:56;100619.34;;;1.07;100.00
62111;BME280;48102;47.526;19.072;2023-01-30T08:55:59;100627.00;;;1.27;100.00
62111;BME280;48102;47.526;19.072;2023-01-30T08:59:02;100615.75;;;1.28;100.00
62111;BME280;48102;47.526;19.072;2023-01-30T09:02:07;100626.81;;;1.49;100.00
62111;BME280;48102;47.526;19.072;2023-01-30T09:05:11;100635.34;;;1.64;100.00
62111;BME280;48102;47.526;19.072;2023-01-30T09:08:13;100618.88;;;1.66;100.00
62111;BME280;48102;47.526;19.072;2023-01-30T09:11:16;100615.31;;;1.78;100.00
62111;BME280;48102;47.526;19.072;2023-01-30T09:14:19;100622.22;;;1.82;100.00
62111;BME280;48102;47.526;19.072;2023-01-30T09:17:23;100617.00;;;1.82;99.76
62111;BME280;48102;47.526;19.072;2023-01-30T09:20:25;100617.91;;;1.76;100.00
62111;BME280;48102;47.526;19.072;2023-01-30T09:23:28;100611.81;;;1.81;99.89
62111;BME280;48102;47.526;19.072;2023-01-30T09:26:31;100605.72;;;1.85;100.00
62111;BME280;48102;47.526;19.072;2023-01-30T09:29:34;100597.06;;;1.84;100.00
62111;BME280;48102;47.526;19.072;2023-01-30T09:32:38;100596.16;;;1.85;100.00
62111;BME280;48102;47.526;19.072;2023-01-30T09:35:41;100596.25;;;1.79;100.00
62111;BME280;48102;47.526;19.072;2023-01-30T09:38:44;100586.78;;;1.72;100.00
62111;BME280;48102;47.526;19.072;2023-01-30T09:41:49;100583.44;;;1.59;100.00
62111;BME280;48102;47.526;19.072;2023-01-30T09:48:55;100573.88;;;1.63;100.00
62111;BME280;48102;47.526;19.072;2023-01-30T09:52:21;100563.59;;;1.54;100.00
62111;BME280;48102;47.526;19.072;2023-01-30T09:55:29;100550.75;;;1.37;100.00
62111;BME280;48102;47.526;19.072;2023-01-30T09:59:02;100549.19;;;1.16;100.00
62111;BME280;48102;47.526;19.072;2023-01-30T10:02:17;100544.94;;;1.09;100.00
62111;BME280;48102;47.526;19.072;2023-01-30T10:05:36;100536.28;;;1.07;100.00
62111;BME280;48102;47.526;19.072;2023-01-30T10:09:01;100535.37;;;1.14;100.00
62111;BME280;48102;47.526;19.072;2023-01-30T10:18:40;100522.88;;;2.31;98.17
62111;BME280;48102;47.526;19.072;2023-01-30T10:21:50;100518.13;;;2.61;96.84
62111;BME280;48102;47.526;19.072;2023-01-30T10:25:25;100509.75;;;2.97;92.40
62111;BME280;48102;47.526;19.072;2023-01-30T10:28:37;100500.22;;;2.96;91.63
62111;BME280;48102;47.526;19.072;2023-01-30T10:31:47;100486.59;;;2.82;91.94
62111;BME280;48102;47.526;19.072;2023-01-30T10:34:53;100482.31;;;2.78;93.36
62111;BME280;48102;47.526;19.072;2023-01-30T10:38:19;100462.19;;;2.88;93.34
62111;BME280;48102;47.526;19.072;2023-01-30T10:41:27;100468.88;;;3.04;91.41
62111;BME280;48102;47.526;19.072;2023-01-30T10:44:32;100462.78;;;3.07;90.75
62111;BME280;48102;47.526;19.072;2023-01-30T10:48:04;100448.28;;;2.89;91.52
62111;BME280;48102;47.526;19.072;2023-01-30T10:51:32;100430.28;;;2.78;92.69
62111;BME280;48102;47.526;19.072;2023-01-30T10:54:53;100421.91;;;2.59;93.69
62111;BME280;48102;47.526;19.072;2023-01-30T10:58:21;100421.00;;;2.62;93.61
62111;BME280;48102;47.526;19.072;2023-01-30T11:01:36;100410.03;;;2.43;95.80
62111;BME280;48102;47.526;19.072;2023-01-30T11:04:56;100391.91;;;2.37;96.13
62111;BME280;48102;47.526;19.072;2023-01-30T11:08:00;100390.16;;;2.37;96.01
62111;BME280;48102;47.526;19.072;2023-01-30T11:11:27;100379.06;;;2.26;98.55
62111;BME280;48102;47.526;19.072;2023-01-30T11:15:09;100370.47;;;2.22;99.17
62111;BME280;48102;47.526;19.072;2023-01-30T11:18:12;100364.22;;;2.34;97.83
62111;BME280;48102;47.526;19.072;2023-01-30T11:21:36;100368.91;;;2.63;96.64
62111;BME280;48102;47.526;19.072;2023-01-30T11:24:46;100356.56;;;2.78;95.26
62111;BME280;48102;47.526;19.072;2023-01-30T11:27:55;100357.31;;;2.83;94.49
62111;BME280;48102;47.526;19.072;2023-01-30T11:31:01;100345.34;;;2.74;93.99
62111;BME280;48102;47.526;19.072;2023-01-30T11:34:19;100342.78;;;2.71;95.03
62111;BME280;48102;47.526;19.072;2023-01-30T11:37:30;100342.91;;;2.63;95.44
62111;BME280;48102;47.526;19.072;2023-01-30T11:40:37;100332.50;;;2.63;96.22
62111;BME280;48102;47.526;19.072;2023-01-30T11:43:41;100318.59;;;2.66;95.86
62111;BME280;48102;47.526;19.072;2023-01-30T11:46:44;100314.94;;;2.76;96.34
62111;BME280;48102;47.526;19.072;2023-01-30T11:49:48;100314.94;;;2.76;96.15
62111;BME280;48102;47.526;19.072;2023-01-30T11:53:24;100314.97;;;2.74;95.58
62111;BME280;48102;47.526;19.072;2023-01-30T11:59:56;100302.47;;;2.47;97.37
62111;BME280;48102;47.526;19.072;2023-01-30T12:03:04;100294.84;;;2.36;98.97
62111;BME280;48102;47.526;19.072;2023-01-30T12:06:08;100294.97;;;2.29;100.00
62111;BME280;48102;47.526;19.072;2023-01-30T12:09:43;100303.72;;;2.23;100.00
62111;BME280;48102;47.526;19.072;2023-01-30T12:12:48;100292.69;;;2.09;100.00
62111;BME280;48102;47.526;19.072;2023-01-30T12:16:11;100281.31;;;2.16;100.00
62111;BME280;48102;47.526;19.072;2023-01-30T12:22:56;100288.31;;;2.12;100.00
62111;BME280;48102;47.526;19.072;2023-01-30T12:26:20;100272.84;;;2.05;100.00
62111;BME280;48102;47.526;19.072;2023-01-30T12:29:33;100244.47;;;1.89;100.00
62111;BME280;48102;47.526;19.072;2023-01-30T12:32:37;100222.88;;;1.87;100.00
62111;BME280;48102;47.526;19.072;2023-01-30T12:53:31;100216.63;;;1.97;100.00
62111;BME280;48102;47.526;19.072;2023-01-30T13:13:08;100196.25;;;2.24;100.00
62111;BME280;48102;47.526;19.072;2023-01-30T13:26:28;100151.91;;;2.32;100.00
62111;BME280;48102;47.526;19.072;2023-01-30T13:29:38;100156.22;;;2.34;100.00
62111;BME280;48102;47.526;19.072;2023-01-30T13:32:48;100157.00;;;2.38;100.00
62111;BME280;48102;47.526;19.072;2023-01-30T13:36:21;100155.22;;;2.40;100.00
62111;BME280;48102;47.526;19.072;2023-01-30T13:43:10;100157.03;;;2.36;100.00
62111;BME280;48102;47.526;19.072;2023-01-30T13:46:22;100153.69;;;2.30;100.00
62111;BME280;48102;47.526;19.072;2023-01-30T13:49:43;100161.41;;;2.33;100.00
62111;BME280;48102;47.526;19.072;2023-01-30T13:53:18;100151.44;;;2.56;100.00
62111;BME280;48102;47.526;19.072;2023-01-30T13:56:31;100150.16;;;2.77;100.00
62111;BME280;48102;47.526;19.072;2023-01-30T13:59:53;100149.09;;;2.86;100.00
62111;BME280;48102;47.526;19.072;2023-01-30T14:06:13;100146.00;;;2.67;100.00
62111;BME280;48102;47.526;19.072;2023-01-30T14:09:27;100131.44;;;2.58;100.00
62111;BME280;48102;47.526;19.072;2023-01-30T14:12:35;100134.78;;;2.63;100.00
62111;BME280;48102;47.526;19.072;2023-01-30T14:16:04;100133.00;;;2.67;100.00
62111;BME280;48102;47.526;19.072;2023-01-30T14:22:49;100134.00;;;2.61;100.00
62111;BME280;48102;47.526;19.072;2023-01-30T14:25:54;100142.66;;;2.62;100.00
62111;BME280;48102;47.526;19.072;2023-01-30T14:28:58;100147.03;;;2.60;100.00
62111;BME280;48102;47.526;19.072;2023-01-30T14:32:01;100158.16;;;2.66;100.00
62111;BME280;48102;47.526;19.072;2023-01-30T14:38:20;100162.78;;;2.52;100.00
62111;BME280;48102;47.526;19.072;2023-01-30T14:41:25;100151.53;;;2.51;100.00
62111;BME280;48102;47.526;19.072;2023-01-30T14:44:57;100162.16;;;2.39;100.00
62111;BME280;48102;47.526;19.072;2023-01-30T14:48:29;100155.44;;;2.28;100.00
62111;BME280;48102;47.526;19.072;2023-01-30T14:54:47;100161.00;;;2.09;100.00
62111;BME280;48102;47.526;19.072;2023-01-30T14:57:55;100143.19;;;1.88;100.00
62111;BME280;48102;47.526;19.072;2023-01-30T15:00:59;100147.69;;;1.78;100.00
62111;BME280;48102;47.526;19.072;2023-01-30T15:04:02;100144.31;;;1.71;100.00
62111;BME280;48102;47.526;19.072;2023-01-30T15:14:03;100142.78;;;1.61;100.00
62111;BME280;48102;47.526;19.072;2023-01-30T15:17:19;100153.97;;;1.65;100.00
62111;BME280;48102;47.526;19.072;2023-01-30T15:20:37;100160.09;;;1.61;100.00
62111;BME280;48102;47.526;19.072;2023-01-30T15:33:30;100142.00;;;1.55;100.00
62111;BME280;48102;47.526;19.072;2023-01-30T15:36:35;100134.12;;;1.59;100.00
62111;BME280;48102;47.526;19.072;2023-01-30T15:39:37;100150.69;;;1.54;100.00
62111;BME280;48102;47.526;19.072;2023-01-30T15:46:16;100167.81;;;1.64;100.00
62111;BME280;48102;47.526;19.072;2023-01-30T15:52:50;100164.72;;;1.42;100.00
62111;BME280;48102;47.526;19.072;2023-01-30T15:55:57;100151.97;;;1.27;100.00
62111;BME280;48102;47.526;19.072;2023-01-30T15:59:02;100158.34;;;1.06;100.00
62111;BME280;48102;47.526;19.072;2023-01-30T16:02:06;100153.22;;;1.01;100.00
62111;BME280;48102;47.526;19.072;2023-01-30T16:05:22;100149.78;;;0.97;100.00
62111;BME280;48102;47.526;19.072;2023-01-30T16:08:34;100168.94;;;0.89;100.00
62111;BME280;48102;47.526;19.072;2023-01-30T16:11:40;100176.81;;;0.81;100.00
62111;BME280;48102;47.526;19.072;2023-01-30T16:14:43;100161.19;;;0.87;100.00
62111;BME280;48102;47.526;19.072;2023-01-30T16:17:49;100167.28;;;0.82;100.00
62111;BME280;48102;47.526;19.072;2023-01-30T16:21:00;100176.81;;;0.83;100.00
62111;BME280;48102;47.526;19.072;2023-01-30T16:24:05;100178.56;;;0.79;100.00
62111;BME280;48102;47.526;19.072;2023-01-30T16:27:17;100166.37;;;0.87;100.00
62111;BME280;48102;47.526;19.072;2023-01-30T16:30:27;100176.81;;;0.81;100.00
